Time;durP1;ratioP1;P1;durP2;ratioP2;P2;SDS_P1;SDS_P2;PMS_P1;PMS_P2;Temp;Humidity;BMP_temperature;BMP_pressure;BME280_temperature;BME280_humidity;BME280_pressure;Samples;Min_cycle;Max_cycle;Signal;HPM_P1;HPM_P2
2022/03/02 00:00:24;;;;;;;3.90;3.60;;;;;;;;;;5011202;28;20341;-61
2022/03/02 00:02:54;;;;;;;4.37;3.97;;;;;;;;;;5024497;28;20218;-62
2022/03/02 00:05:27;;;;;;;3.37;3.07;;;;;;;;;;5029717;28;20198;-61
2022/03/02 00:07:58;;;;;;;4.53;3.90;;;;;;;;;;5027497;28;20195;-61
2022/03/02 00:10:31;;;;;;;4.03;3.63;;;;;;;;;;5025695;28;20203;-62
2022/03/02 00:13:00;;;;;;;3.47;3.17;;;;;;;;;;5014281;28;20203;-61
2022/03/02 00:15:30;;;;;;;3.97;3.57;;;;;;;;;;5020412;28;20242;-61
2022/03/02 00:18:01;;;;;;;4.53;4.10;;;;;;;;;;5019732;28;20230;-61
2022/03/02 00:20:29;;;;;;;4.23;3.83;;;;;;;;;;5020367;28;20527;-61
2022/03/02 00:23:01;;;;;;;3.87;3.47;;;;;;;;;;5017834;28;20614;-61
2022/03/02 00:25:32;;;;;;;4.27;3.87;;;;;;;;;;5010419;28;20626;-61
2022/03/02 00:28:04;;;;;;;4.13;3.73;;;;;;;;;;5019703;28;20917;-61
2022/03/02 00:30:34;;;;;;;4.67;3.67;;;;;;;;;;5024796;28;20215;-61
2022/03/02 00:33:07;;;;;;;4.20;3.63;;;;;;;;;;5020509;28;20268;-61
2022/03/02 00:35:37;;;;;;;4.23;3.83;;;;;;;;;;5022631;28;20183;-61
2022/03/02 00:38:10;;;;;;;4.30;3.90;;;;;;;;;;5016440;28;20265;-63
2022/03/02 00:40:40;;;;;;;4.53;4.10;;;;;;;;;;5025933;28;20302;-61
2022/03/02 00:43:16;;;;;;;4.30;3.90;;;;;;;;;;5024432;28;20217;-61
2022/03/02 00:45:52;;;;;;;4.30;3.90;;;;;;;;;;5020890;28;20245;-61
2022/03/02 00:48:34;;;;;;;4.47;4.07;;;;;;;;;;5024487;28;20582;-62
2022/03/02 00:51:01;;;;;;;3.93;3.53;;;;;;;;;;5021385;28;20280;-62
2022/03/02 00:53:28;;;;;;;4.00;3.57;;;;;;;;;;5022185;28;20223;-61
2022/03/02 00:55:55;;;;;;;4.00;3.60;;;;;;;;;;5023980;28;20196;-61
2022/03/02 00:58:22;;;;;;;4.30;3.90;;;;;;;;;;5024796;28;20198;-61
2022/03/02 01:00:50;;;;;;;4.37;3.97;;;;;;;;;;5023711;28;20238;-63
2022/03/02 01:03:17;;;;;;;4.50;4.10;;;;;;;;;;5023116;28;20215;-61
2022/03/02 01:05:44;;;;;;;3.53;3.23;;;;;;;;;;5020954;28;20207;-61
2022/03/02 01:08:11;;;;;;;4.07;3.63;;;;;;;;;;5007693;28;20203;-62
2022/03/02 01:10:40;;;;;;;4.20;3.80;;;;;;;;;;5026592;28;20199;-61
2022/03/02 01:13:09;;;;;;;4.30;3.50;;;;;;;;;;5025185;28;20826;-63
2022/03/02 01:15:39;;;;;;;4.80;4.40;;;;;;;;;;5016986;28;20262;-62
2022/03/02 01:18:11;;;;;;;4.87;4.43;;;;;;;;;;5015114;28;20229;-61
2022/03/02 01:20:40;;;;;;;4.00;3.60;;;;;;;;;;5026224;28;20268;-62
2022/03/02 01:23:12;;;;;;;4.00;3.70;;;;;;;;;;5027953;28;20289;-61
2022/03/02 01:25:48;;;;;;;3.93;3.53;;;;;;;;;;5005355;28;20214;-60
2022/03/02 01:28:17;;;;;;;4.53;3.40;;;;;;;;;;5017541;28;20210;-62
2022/03/02 01:31:01;;;;;;;4.10;3.70;;;;;;;;;;5024933;28;20252;-61
2022/03/02 01:33:43;;;;;;;4.13;3.50;;;;;;;;;;5008862;28;20250;-61
2022/03/02 01:36:15;;;;;;;4.20;3.80;;;;;;;;;;5024777;28;20219;-62
2022/03/02 01:38:46;;;;;;;4.70;4.17;;;;;;;;;;5010524;28;20199;-62
2022/03/02 01:41:19;;;;;;;4.10;3.70;;;;;;;;;;5011924;28;20590;-61
2022/03/02 01:43:50;;;;;;;3.63;3.30;;;;;;;;;;5003176;28;20197;-61
2022/03/02 01:46:27;;;;;;;4.77;4.37;;;;;;;;;;5013918;28;20715;-61
2022/03/02 01:48:58;;;;;;;3.83;3.53;;;;;;;;;;5025763;28;20297;-61
2022/03/02 01:51:27;;;;;;;3.97;3.67;;;;;;;;;;5029515;28;20305;-62
2022/03/02 01:53:57;;;;;;;4.80;4.10;;;;;;;;;;5026393;28;20258;-61
2022/03/02 01:56:27;;;;;;;4.47;4.07;;;;;;;;;;5028266;28;20688;-63
2022/03/02 01:58:58;;;;;;;5.10;4.30;;;;;;;;;;4998576;28;20250;-62
2022/03/02 02:01:34;;;;;;;4.33;3.90;;;;;;;;;;5023940;28;20245;-62
2022/03/02 02:04:15;;;;;;;3.97;3.57;;;;;;;;;;5026626;28;20207;-62
2022/03/02 02:06:46;;;;;;;4.70;4.20;;;;;;;;;;5011468;28;20203;-63
2022/03/02 02:09:17;;;;;;;4.57;3.97;;;;;;;;;;5027036;28;20199;-63
2022/03/02 02:11:49;;;;;;;4.63;4.17;;;;;;;;;;5023291;28;20543;-63
2022/03/02 02:14:22;;;;;;;4.13;3.73;;;;;;;;;;5018890;28;20238;-61
2022/03/02 02:16:53;;;;;;;4.17;3.73;;;;;;;;;;5025930;28;20242;-61
2022/03/02 02:19:24;;;;;;;4.47;3.97;;;;;;;;;;5025604;28;20199;-62
2022/03/02 02:21:56;;;;;;;4.23;3.83;;;;;;;;;;5017070;28;20206;-61
2022/03/02 02:24:30;;;;;;;4.57;3.80;;;;;;;;;;5025539;28;20207;-62
2022/03/02 02:27:01;;;;;;;4.43;4.03;;;;;;;;;;5023524;28;20635;-61
2022/03/02 02:29:31;;;;;;;4.43;4.03;;;;;;;;;;5021569;28;20203;-60
2022/03/02 02:32:07;;;;;;;4.67;4.27;;;;;;;;;;5024691;28;20203;-61
2022/03/02 02:34:37;;;;;;;3.93;3.53;;;;;;;;;;5018151;28;20245;-62
2022/03/02 02:37:07;;;;;;;4.40;4.00;;;;;;;;;;5031665;28;20214;-61
2022/03/02 02:39:40;;;;;;;3.83;3.43;;;;;;;;;;5006240;28;20314;-61
2022/03/02 02:42:12;;;;;;;4.30;3.90;;;;;;;;;;5025617;28;20199;-61
2022/03/02 02:44:46;;;;;;;4.93;3.83;;;;;;;;;;5021526;28;20203;-62
2022/03/02 02:47:18;;;;;;;4.37;3.57;;;;;;;;;;5027380;28;20226;-60
2022/03/02 02:49:48;;;;;;;4.80;4.40;;;;;;;;;;5021151;28;20198;-61
2022/03/02 02:52:18;;;;;;;4.10;3.70;;;;;;;;;;5032576;28;20199;-61
2022/03/02 02:54:49;;;;;;;4.57;4.17;;;;;;;;;;5031123;28;20210;-61
2022/03/02 02:57:20;;;;;;;4.33;3.93;;;;;;;;;;5030045;28;20200;-61
2022/03/02 02:59:51;;;;;;;4.20;3.80;;;;;;;;;;5019457;28;20246;-63
2022/03/02 03:02:21;;;;;;;4.13;3.73;;;;;;;;;;5026002;28;20230;-61
2022/03/02 03:04:53;;;;;;;4.00;3.60;;;;;;;;;;5028049;28;20621;-61
2022/03/02 03:07:25;;;;;;;4.67;4.27;;;;;;;;;;5029209;28;20218;-63
2022/03/02 03:09:54;;;;;;;4.73;4.30;;;;;;;;;;5028376;28;20218;-61
2022/03/02 03:12:26;;;;;;;4.50;4.10;;;;;;;;;;5022567;28;20211;-61
2022/03/02 03:14:55;;;;;;;4.13;3.73;;;;;;;;;;5019869;28;20232;-62
2022/03/02 03:17:27;;;;;;;4.17;3.77;;;;;;;;;;5030535;28;20187;-63
2022/03/02 03:19:57;;;;;;;4.23;3.83;;;;;;;;;;5027715;28;20195;-62
2022/03/02 03:22:30;;;;;;;4.83;4.33;;;;;;;;;;5021294;28;20207;-63
2022/03/02 03:25:02;;;;;;;5.27;4.20;;;;;;;;;;4999814;28;20192;-63
2022/03/02 03:27:34;;;;;;;4.30;3.77;;;;;;;;;;5016282;28;20219;-61
2022/03/02 03:30:06;;;;;;;4.67;4.17;;;;;;;;;;5009194;28;20219;-62
2022/03/02 03:32:37;;;;;;;5.10;4.60;;;;;;;;;;5022264;28;20239;-61
2022/03/02 03:35:10;;;;;;;4.30;3.90;;;;;;;;;;5024044;28;20230;-61
2022/03/02 03:37:41;;;;;;;4.80;4.40;;;;;;;;;;5004666;28;20203;-61
2022/03/02 03:40:17;;;;;;;4.90;4.50;;;;;;;;;;5001222;28;20203;-61
2022/03/02 03:42:54;;;;;;;4.60;4.13;;;;;;;;;;5025703;28;20199;-61
2022/03/02 03:45:25;;;;;;;4.50;4.10;;;;;;;;;;4993734;28;20208;-61
2022/03/02 03:47:56;;;;;;;4.67;4.27;;;;;;;;;;5017011;28;20195;-61
2022/03/02 03:50:26;;;;;;;4.37;3.97;;;;;;;;;;5003913;28;20223;-62
2022/03/02 03:52:53;;;;;;;4.90;4.40;;;;;;;;;;5014352;28;20559;-61
2022/03/02 03:55:24;;;;;;;4.47;4.03;;;;;;;;;;5013599;28;20215;-61
2022/03/02 03:57:56;;;;;;;4.70;3.80;;;;;;;;;;5025705;28;20209;-61
2022/03/02 04:00:28;;;;;;;4.13;3.73;;;;;;;;;;5029795;28;20613;-61
2022/03/02 04:02:59;;;;;;;4.73;4.23;;;;;;;;;;5029151;28;20217;-62
2022/03/02 04:05:29;;;;;;;4.63;4.23;;;;;;;;;;5028711;28;20214;-62
2022/03/02 04:08:02;;;;;;;4.53;4.13;;;;;;;;;;5021777;28;20694;-61
2022/03/02 04:10:34;;;;;;;4.43;4.03;;;;;;;;;;5018567;28;20203;-61
2022/03/02 04:13:03;;;;;;;4.60;4.20;;;;;;;;;;5028511;28;20550;-63
2022/03/02 04:15:37;;;;;;;4.70;4.30;;;;;;;;;;5026529;28;20231;-63
2022/03/02 04:18:08;;;;;;;4.30;3.90;;;;;;;;;;5016615;28;20203;-63
2022/03/02 04:20:40;;;;;;;4.70;4.30;;;;;;;;;;5029665;28;20273;-61
2022/03/02 04:23:14;;;;;;;5.33;4.63;;;;;;;;;;5030157;28;20269;-61
2022/03/02 04:25:49;;;;;;;4.83;4.43;;;;;;;;;;5022559;28;20205;-61
2022/03/02 04:28:20;;;;;;;4.50;4.10;;;;;;;;;;5025943;28;20202;-61
2022/03/02 04:30:50;;;;;;;4.57;4.03;;;;;;;;;;5028479;28;20274;-62
2022/03/02 04:33:22;;;;;;;5.17;4.67;;;;;;;;;;4997143;28;20305;-61
2022/03/02 04:35:52;;;;;;;5.10;4.53;;;;;;;;;;5021543;28;20215;-61
2022/03/02 04:38:25;;;;;;;4.70;4.30;;;;;;;;;;5003204;28;20275;-61
2022/03/02 04:40:56;;;;;;;5.30;4.80;;;;;;;;;;5026386;28;20191;-61
2022/03/02 04:43:27;;;;;;;4.53;4.13;;;;;;;;;;5025641;28;20206;-61
2022/03/02 04:45:57;;;;;;;5.07;4.57;;;;;;;;;;5034399;28;20211;-61
2022/03/02 04:48:30;;;;;;;5.37;4.87;;;;;;;;;;5005211;28;20232;-61
2022/03/02 04:51:01;;;;;;;5.47;4.97;;;;;;;;;;4998226;28;20212;-62
2022/03/02 04:53:31;;;;;;;4.33;3.93;;;;;;;;;;5016139;28;20199;-61
2022/03/02 04:56:04;;;;;;;5.33;4.83;;;;;;;;;;5027032;28;20876;-61
2022/03/02 04:58:33;;;;;;;4.53;4.13;;;;;;;;;;5028447;28;20257;-61
2022/03/02 05:01:03;;;;;;;4.70;4.30;;;;;;;;;;5024433;28;20204;-61
2022/03/02 05:03:32;;;;;;;4.60;4.20;;;;;;;;;;4996223;28;20202;-61
2022/03/02 05:06:04;;;;;;;4.83;4.43;;;;;;;;;;5022606;28;20190;-61
2022/03/02 05:08:37;;;;;;;3.97;3.67;;;;;;;;;;5005417;28;20215;-62
2022/03/02 05:11:08;;;;;;;4.90;4.20;;;;;;;;;;5015859;28;20214;-61
2022/03/02 05:13:43;;;;;;;4.43;4.03;;;;;;;;;;5017054;28;20669;-61
2022/03/02 05:16:14;;;;;;;5.07;4.57;;;;;;;;;;5020842;28;20456;-61
2022/03/02 05:18:45;;;;;;;5.57;5.07;;;;;;;;;;5025847;28;20669;-61
2022/03/02 05:21:26;;;;;;;5.57;5.07;;;;;;;;;;5032201;28;20287;-61
2022/03/02 05:23:58;;;;;;;4.97;4.47;;;;;;;;;;5024594;28;20643;-62
2022/03/02 05:26:33;;;;;;;4.30;3.90;;;;;;;;;;5014565;28;20210;-62
2022/03/02 05:29:03;;;;;;;5.00;4.50;;;;;;;;;;5021625;28;20249;-62
2022/03/02 05:31:35;;;;;;;4.30;3.90;;;;;;;;;;5019421;28;20219;-62
2022/03/02 05:34:08;;;;;;;4.83;4.40;;;;;;;;;;5039645;28;20201;-61
2022/03/02 05:36:40;;;;;;;5.00;4.50;;;;;;;;;;5023976;28;20227;-63
2022/03/02 05:39:12;;;;;;;5.03;4.53;;;;;;;;;;5019766;28;20214;-62
2022/03/02 05:41:44;;;;;;;5.13;4.63;;;;;;;;;;5016335;28;20655;-61
2022/03/02 05:44:14;;;;;;;5.10;4.60;;;;;;;;;;5015479;28;20207;-62
2022/03/02 05:46:45;;;;;;;5.03;4.50;;;;;;;;;;5022595;28;20654;-62
2022/03/02 05:49:17;;;;;;;4.97;4.47;;;;;;;;;;5023910;28;20307;-60
2022/03/02 05:51:47;;;;;;;5.27;4.77;;;;;;;;;;5018345;28;20229;-61
2022/03/02 05:54:20;;;;;;;4.50;4.10;;;;;;;;;;5009937;28;20208;-62
2022/03/02 05:56:50;;;;;;;5.67;5.07;;;;;;;;;;5027324;28;20195;-60
2022/03/02 05:59:22;;;;;;;5.70;5.20;;;;;;;;;;5027835;28;20195;-61
2022/03/02 06:01:54;;;;;;;5.10;4.60;;;;;;;;;;5019461;28;20199;-61
2022/03/02 06:04:24;;;;;;;5.00;4.60;;;;;;;;;;5039401;28;20207;-62
2022/03/02 06:06:54;;;;;;;5.30;4.87;;;;;;;;;;5012038;28;20376;-64
2022/03/02 06:09:23;;;;;;;5.70;5.07;;;;;;;;;;5017405;28;20199;-62
2022/03/02 06:11:51;;;;;;;4.63;4.23;;;;;;;;;;5021353;28;20751;-61
2022/03/02 06:14:22;;;;;;;4.87;4.47;;;;;;;;;;5027610;28;20237;-61
2022/03/02 06:16:52;;;;;;;5.17;4.67;;;;;;;;;;5039583;28;20235;-62
2022/03/02 06:19:23;;;;;;;5.17;4.73;;;;;;;;;;5031903;28;20291;-62
2022/03/02 06:21:53;;;;;;;4.90;4.40;;;;;;;;;;5028888;28;20615;-62
2022/03/02 06:24:25;;;;;;;6.13;5.03;;;;;;;;;;5024166;28;20211;-64
2022/03/02 06:26:58;;;;;;;5.53;4.93;;;;;;;;;;5026319;28;20215;-64
2022/03/02 06:29:28;;;;;;;4.50;4.10;;;;;;;;;;5007771;28;20227;-64
2022/03/02 06:31:57;;;;;;;5.30;4.80;;;;;;;;;;5021645;28;20266;-63
2022/03/02 06:34:29;;;;;;;5.17;4.73;;;;;;;;;;5030707;28;20207;-62
2022/03/02 06:37:01;;;;;;;4.83;4.43;;;;;;;;;;5010570;28;20202;-65
2022/03/02 06:39:31;;;;;;;5.80;4.50;;;;;;;;;;5019432;28;20228;-62
2022/03/02 06:42:16;;;;;;;4.80;4.30;;;;;;;;;;5023751;28;20249;-63
2022/03/02 06:45:04;;;;;;;4.87;4.43;;;;;;;;;;5031983;28;20657;-63
2022/03/02 06:47:37;;;;;;;5.23;4.73;;;;;;;;;;5013954;28;20212;-63
2022/03/02 06:50:07;;;;;;;4.90;4.40;;;;;;;;;;5014193;28;20652;-63
2022/03/02 06:52:43;;;;;;;4.97;4.43;;;;;;;;;;5011195;28;20198;-62
2022/03/02 06:55:19;;;;;;;5.00;4.50;;;;;;;;;;5024655;28;20633;-63
2022/03/02 06:57:54;;;;;;;5.10;4.60;;;;;;;;;;5023256;28;20222;-63
2022/03/02 07:00:26;;;;;;;4.97;4.43;;;;;;;;;;5024065;28;20293;-62
2022/03/02 07:03:04;;;;;;;5.00;4.50;;;;;;;;;;5023433;28;20642;-64
2022/03/02 07:05:34;;;;;;;5.00;4.50;;;;;;;;;;5028297;28;20206;-64
2022/03/02 07:08:04;;;;;;;5.37;4.57;;;;;;;;;;5015281;28;20230;-63
2022/03/02 07:10:36;;;;;;;5.00;4.50;;;;;;;;;;5034122;28;20222;-62
2022/03/02 07:13:06;;;;;;;4.17;3.77;;;;;;;;;;5019303;28;20215;-61
2022/03/02 07:15:38;;;;;;;4.60;4.20;;;;;;;;;;5022518;28;20235;-61
2022/03/02 07:18:10;;;;;;;4.60;4.20;;;;;;;;;;5016580;28;20289;-61
2022/03/02 07:20:51;;;;;;;4.47;4.07;;;;;;;;;;5023364;28;20257;-61
2022/03/02 07:23:23;;;;;;;4.73;4.27;;;;;;;;;;5020600;28;20210;-61
2022/03/02 07:25:55;;;;;;;4.63;4.23;;;;;;;;;;5032102;28;20281;-62
2022/03/02 07:28:27;;;;;;;4.40;3.80;;;;;;;;;;5031717;28;20215;-62
2022/03/02 07:31:02;;;;;;;4.60;4.20;;;;;;;;;;5027077;28;20202;-62
2022/03/02 07:33:33;;;;;;;5.03;4.53;;;;;;;;;;5010312;28;20673;-62
2022/03/02 07:36:05;;;;;;;4.20;3.80;;;;;;;;;;5028000;28;20207;-63
2022/03/02 07:38:40;;;;;;;4.07;3.57;;;;;;;;;;5014126;28;20215;-62
2022/03/02 07:41:10;;;;;;;4.53;4.13;;;;;;;;;;5004122;28;20188;-65
2022/03/02 07:43:42;;;;;;;4.77;4.27;;;;;;;;;;5022672;28;20203;-63
2022/03/02 07:46:13;;;;;;;4.10;3.70;;;;;;;;;;5020000;28;20203;-61
2022/03/02 07:48:44;;;;;;;4.00;3.63;;;;;;;;;;5013989;28;20214;-61
2022/03/02 07:51:18;;;;;;;4.30;3.80;;;;;;;;;;5023328;28;20210;-61
2022/03/02 07:54:06;;;;;;;4.30;3.90;;;;;;;;;;5008829;28;20206;-63
2022/03/02 07:56:37;;;;;;;4.83;3.70;;;;;;;;;;5029443;28;20210;-63
2022/03/02 07:59:09;;;;;;;3.83;3.53;;;;;;;;;;5019882;28;20301;-63
2022/03/02 08:01:43;;;;;;;4.00;3.60;;;;;;;;;;4999479;28;20203;-60
2022/03/02 08:04:14;;;;;;;3.83;3.43;;;;;;;;;;5009237;28;20262;-62
2022/03/02 08:06:45;;;;;;;4.50;4.10;;;;;;;;;;5022249;28;20210;-62
2022/03/02 08:09:14;;;;;;;4.07;3.53;;;;;;;;;;5018686;28;20206;-63
2022/03/02 08:11:46;;;;;;;3.97;3.47;;;;;;;;;;5019934;28;20206;-63
2022/03/02 08:14:18;;;;;;;4.67;4.27;;;;;;;;;;5023118;28;20225;-63
2022/03/02 08:16:54;;;;;;;3.70;3.40;;;;;;;;;;5009056;28;20238;-64
2022/03/02 08:19:23;;;;;;;3.63;3.33;;;;;;;;;;5026262;28;20203;-63
2022/03/02 08:22:08;;;;;;;3.90;3.50;;;;;;;;;;5022279;28;20269;-64
2022/03/02 08:24:42;;;;;;;3.83;3.47;;;;;;;;;;5018194;28;20270;-63
2022/03/02 08:27:15;;;;;;;4.37;3.97;;;;;;;;;;5007361;28;20206;-63
2022/03/02 08:29:52;;;;;;;4.40;4.00;;;;;;;;;;5012441;28;20210;-64
2022/03/02 08:32:31;;;;;;;4.27;3.87;;;;;;;;;;5021496;28;20203;-63
2022/03/02 08:35:08;;;;;;;4.53;4.13;;;;;;;;;;5027166;28;20606;-64
2022/03/02 08:37:36;;;;;;;4.57;4.17;;;;;;;;;;5018358;28;20208;-64
2022/03/02 08:40:08;;;;;;;4.00;3.70;;;;;;;;;;5019085;28;20744;-64
2022/03/02 08:42:37;;;;;;;4.07;3.67;;;;;;;;;;5019190;28;20633;-64
2022/03/02 08:45:12;;;;;;;4.20;3.80;;;;;;;;;;5011732;28;20199;-64
2022/03/02 08:47:42;;;;;;;4.50;4.10;;;;;;;;;;5014595;28;20223;-63
2022/03/02 08:50:22;;;;;;;4.60;4.20;;;;;;;;;;5016377;28;20277;-63
2022/03/02 08:52:54;;;;;;;4.27;3.87;;;;;;;;;;5026407;28;20209;-63
2022/03/02 08:55:29;;;;;;;5.03;4.53;;;;;;;;;;5028248;28;20659;-64
2022/03/02 08:58:01;;;;;;;4.80;4.40;;;;;;;;;;5025540;28;20203;-63
2022/03/02 09:00:35;;;;;;;4.20;3.80;;;;;;;;;;5012149;28;20200;-62
2022/03/02 09:03:06;;;;;;;4.50;3.70;;;;;;;;;;4999968;28;20210;-62
2022/03/02 09:05:36;;;;;;;4.53;4.13;;;;;;;;;;5012407;28;20290;-62
2022/03/02 09:08:14;;;;;;;4.43;4.03;;;;;;;;;;5015784;28;20258;-62
2022/03/02 09:10:48;;;;;;;4.80;4.27;;;;;;;;;;5029759;28;20205;-62
2022/03/02 09:13:18;;;;;;;3.97;3.30;;;;;;;;;;5014677;28;20207;-62
2022/03/02 09:15:48;;;;;;;4.53;3.90;;;;;;;;;;5020582;28;20223;-62
2022/03/02 09:18:19;;;;;;;4.13;3.73;;;;;;;;;;5020166;28;20226;-65
2022/03/02 09:20:58;;;;;;;4.20;3.77;;;;;;;;;;5024404;28;20230;-64
2022/03/02 09:23:29;;;;;;;4.23;3.83;;;;;;;;;;5012971;28;20202;-64
2022/03/02 09:26:05;;;;;;;4.17;3.77;;;;;;;;;;5005074;28;20215;-63
2022/03/02 09:28:38;;;;;;;4.27;3.87;;;;;;;;;;5025726;28;20639;-64
2022/03/02 09:31:12;;;;;;;4.30;3.90;;;;;;;;;;5027884;28;20287;-63
2022/03/02 09:33:48;;;;;;;4.13;3.70;;;;;;;;;;5012027;28;20191;-63
2022/03/02 09:36:24;;;;;;;4.60;4.20;;;;;;;;;;5001319;28;20227;-61
2022/03/02 09:39:01;;;;;;;4.20;3.70;;;;;;;;;;5021642;28;20217;-62
2022/03/02 09:41:31;;;;;;;4.30;3.80;;;;;;;;;;5022058;28;20222;-63
2022/03/02 09:44:06;;;;;;;4.60;4.20;;;;;;;;;;5018900;28;20204;-64
2022/03/02 09:46:38;;;;;;;4.40;3.80;;;;;;;;;;5019056;28;20213;-62
2022/03/02 09:49:12;;;;;;;5.90;4.00;;;;;;;;;;5010924;28;20195;-62
2022/03/02 09:51:43;;;;;;;4.17;3.77;;;;;;;;;;5022744;28;20701;-65
2022/03/02 09:54:16;;;;;;;4.57;4.17;;;;;;;;;;5039373;28;20308;-63
2022/03/02 09:56:50;;;;;;;5.63;3.90;;;;;;;;;;5027323;28;20241;-64
2022/03/02 09:59:26;;;;;;;4.60;4.10;;;;;;;;;;5022873;28;20204;-63
2022/03/02 10:02:00;;;;;;;4.30;3.90;;;;;;;;;;5013827;28;20210;-63
2022/03/02 10:04:47;;;;;;;4.23;3.83;;;;;;;;;;5027352;28;20199;-63
2022/03/02 10:07:29;;;;;;;4.13;3.50;;;;;;;;;;5033235;28;20209;-63
2022/03/02 10:10:06;;;;;;;3.93;3.63;;;;;;;;;;5031898;28;20630;-63
2022/03/02 10:12:37;;;;;;;13.07;4.40;;;;;;;;;;5026185;28;20290;-65
2022/03/02 10:15:12;;;;;;;4.97;3.77;;;;;;;;;;5024845;28;20257;-63
2022/03/02 10:17:48;;;;;;;4.90;4.20;;;;;;;;;;5023095;28;20245;-63
2022/03/02 10:20:18;;;;;;;4.50;4.10;;;;;;;;;;5027125;28;20199;-64
2022/03/02 10:22:58;;;;;;;4.77;4.27;;;;;;;;;;5011077;28;20211;-63
2022/03/02 10:25:56;;;;;;;5.00;4.50;;;;;;;;;;5007731;28;20258;-65
2022/03/02 10:28:27;;;;;;;4.70;4.30;;;;;;;;;;5003987;28;20834;-64
2022/03/02 10:31:19;;;;;;;4.13;3.73;;;;;;;;;;5030531;28;20210;-63
2022/03/02 10:33:54;;;;;;;4.00;3.57;;;;;;;;;;4987533;28;20207;-63
2022/03/02 10:36:29;;;;;;;4.60;4.20;;;;;;;;;;5029462;28;20305;-63
2022/03/02 10:39:02;;;;;;;4.37;3.97;;;;;;;;;;5025781;28;20221;-63
2022/03/02 10:41:39;;;;;;;4.40;4.00;;;;;;;;;;5037638;28;20205;-63
2022/03/02 10:44:27;;;;;;;4.07;3.73;;;;;;;;;;5017934;28;20194;-63
2022/03/02 10:47:02;;;;;;;5.10;4.03;;;;;;;;;;5037377;28;20226;-63
2022/03/02 10:49:34;;;;;;;4.53;4.13;;;;;;;;;;5026680;28;20234;-62
2022/03/02 10:52:05;;;;;;;4.37;3.97;;;;;;;;;;5022391;28;20230;-63
2022/03/02 10:54:36;;;;;;;4.43;4.03;;;;;;;;;;5017421;28;20207;-65
2022/03/02 10:57:13;;;;;;;3.83;3.43;;;;;;;;;;5012125;28;20219;-61
2022/03/02 10:59:55;;;;;;;4.27;3.60;;;;;;;;;;5004777;28;20207;-63
2022/03/02 11:02:25;;;;;;;4.33;3.93;;;;;;;;;;5008272;28;20207;-62
2022/03/02 11:04:59;;;;;;;3.63;3.33;;;;;;;;;;5013537;28;20622;-63
2022/03/02 11:07:29;;;;;;;4.30;3.90;;;;;;;;;;5012360;28;20211;-61
2022/03/02 11:10:12;;;;;;;4.27;3.83;;;;;;;;;;5032326;28;20333;-62
2022/03/02 11:12:43;;;;;;;4.30;3.90;;;;;;;;;;4994135;28;20222;-62
2022/03/02 11:15:26;;;;;;;4.83;4.37;;;;;;;;;;5005214;28;20308;-63
2022/03/02 11:18:01;;;;;;;4.57;4.17;;;;;;;;;;5022445;28;20652;-62
2022/03/02 11:20:32;;;;;;;4.10;3.70;;;;;;;;;;5027692;28;20548;-61
2022/03/02 11:23:07;;;;;;;3.87;3.57;;;;;;;;;;4996417;28;20623;-62
2022/03/02 11:25:45;;;;;;;4.37;3.97;;;;;;;;;;5020559;28;20524;-63
2022/03/02 11:28:17;;;;;;;4.77;3.97;;;;;;;;;;5029835;28;20661;-60
2022/03/02 11:31:04;;;;;;;4.40;3.83;;;;;;;;;;5030163;28;20206;-63
2022/03/02 11:33:33;;;;;;;4.90;3.70;;;;;;;;;;5030466;28;20234;-62
2022/03/02 11:36:08;;;;;;;4.43;3.53;;;;;;;;;;5028812;28;20203;-63
2022/03/02 11:38:41;;;;;;;3.97;3.50;;;;;;;;;;5017367;28;20230;-62
2022/03/02 11:41:13;;;;;;;4.03;3.63;;;;;;;;;;5023967;28;20535;-65
2022/03/02 11:43:42;;;;;;;4.23;3.60;;;;;;;;;;5023330;28;20207;-63
2022/03/02 11:46:14;;;;;;;4.20;3.30;;;;;;;;;;5013794;28;20200;-61
2022/03/02 11:48:46;;;;;;;3.90;3.53;;;;;;;;;;5025383;28;20215;-62
2022/03/02 11:51:26;;;;;;;4.37;3.93;;;;;;;;;;5019477;28;20295;-64
2022/03/02 11:54:15;;;;;;;3.80;3.50;;;;;;;;;;5018802;28;20577;-64
2022/03/02 11:56:46;;;;;;;4.10;3.70;;;;;;;;;;5022601;28;20897;-64
2022/03/02 11:59:16;;;;;;;4.10;3.67;;;;;;;;;;5022437;28;20618;-62
2022/03/02 12:01:54;;;;;;;4.17;3.77;;;;;;;;;;5006023;28;20728;-65
2022/03/02 12:04:29;;;;;;;4.33;3.60;;;;;;;;;;5026170;28;20207;-63
2022/03/02 12:06:58;;;;;;;4.60;4.17;;;;;;;;;;5022587;28;20274;-62
2022/03/02 12:09:33;;;;;;;3.77;3.40;;;;;;;;;;5025610;28;20204;-61
2022/03/02 12:12:22;;;;;;;4.13;3.60;;;;;;;;;;5026911;28;20330;-63
2022/03/02 12:14:54;;;;;;;4.07;3.50;;;;;;;;;;5019673;28;20387;-62
2022/03/02 12:17:30;;;;;;;7.13;3.80;;;;;;;;;;5024360;28;20242;-63
2022/03/02 12:20:06;;;;;;;4.17;3.77;;;;;;;;;;5009799;28;20673;-66
2022/03/02 12:22:47;;;;;;;3.83;3.47;;;;;;;;;;5017688;28;20764;-62
2022/03/02 12:25:24;;;;;;;4.00;3.60;;;;;;;;;;5031978;28;20229;-62
2022/03/02 12:28:02;;;;;;;3.77;3.47;;;;;;;;;;5010175;28;20198;-63
2022/03/02 12:30:32;;;;;;;4.57;3.70;;;;;;;;;;5024943;28;20203;-61
2022/03/02 12:33:11;;;;;;;3.97;3.37;;;;;;;;;;5023095;28;20504;-61
2022/03/02 12:35:41;;;;;;;4.30;3.90;;;;;;;;;;5015159;28;20668;-62
2022/03/02 12:38:13;;;;;;;3.53;3.17;;;;;;;;;;5034909;28;20712;-62
2022/03/02 12:40:45;;;;;;;4.00;3.63;;;;;;;;;;5001946;28;20203;-64
2022/03/02 12:43:22;;;;;;;3.87;3.47;;;;;;;;;;5025918;28;20626;-63
2022/03/02 12:46:02;;;;;;;4.17;3.77;;;;;;;;;;5031073;28;20203;-63
2022/03/02 12:48:36;;;;;;;3.47;3.17;;;;;;;;;;5022393;28;20215;-62
2022/03/02 12:51:29;;;;;;;4.37;3.63;;;;;;;;;;5018895;28;20223;-62
2022/03/02 12:54:00;;;;;;;4.73;3.70;;;;;;;;;;5025439;28;20226;-61
2022/03/02 12:56:32;;;;;;;4.43;4.00;;;;;;;;;;5022634;28;20199;-64
2022/03/02 12:59:03;;;;;;;3.90;3.13;;;;;;;;;;5025527;28;20550;-63
2022/03/02 13:01:39;;;;;;;4.30;3.67;;;;;;;;;;5011798;28;20211;-61
2022/03/02 13:04:13;;;;;;;4.80;4.33;;;;;;;;;;5023449;28;20207;-62
2022/03/02 13:06:50;;;;;;;4.33;3.60;;;;;;;;;;5020821;28;20302;-64
2022/03/02 13:09:22;;;;;;;3.90;3.17;;;;;;;;;;5010310;28;20215;-62
2022/03/02 13:11:55;;;;;;;4.70;4.07;;;;;;;;;;5007612;28;20218;-61
2022/03/02 13:14:34;;;;;;;3.93;3.53;;;;;;;;;;5020338;28;20237;-61
2022/03/02 13:17:16;;;;;;;5.07;3.80;;;;;;;;;;5016213;28;20229;-61
2022/03/02 13:20:17;;;;;;;4.63;4.00;;;;;;;;;;5037227;28;20194;-62
2022/03/02 13:23:12;;;;;;;5.37;3.63;;;;;;;;;;5013172;28;20211;-63
2022/03/02 13:25:59;;;;;;;3.97;3.57;;;;;;;;;;5015355;28;20194;-64
2022/03/02 13:28:36;;;;;;;4.03;3.47;;;;;;;;;;5039830;28;20202;-66
2022/03/02 13:31:22;;;;;;;3.80;3.40;;;;;;;;;;5023662;28;20222;-64
2022/03/02 13:34:00;;;;;;;3.83;3.33;;;;;;;;;;5017165;28;20299;-65
2022/03/02 13:36:49;;;;;;;4.87;4.20;;;;;;;;;;5014687;28;20203;-61
2022/03/02 13:39:26;;;;;;;4.10;3.70;;;;;;;;;;5008074;28;20576;-61
2022/03/02 13:42:04;;;;;;;3.83;3.43;;;;;;;;;;5003450;28;20733;-63
2022/03/02 13:44:41;;;;;;;3.37;3.07;;;;;;;;;;5019432;28;20242;-62
2022/03/02 13:47:16;;;;;;;3.53;3.23;;;;;;;;;;5024909;28;20618;-63
2022/03/02 13:49:59;;;;;;;4.13;3.40;;;;;;;;;;5027179;28;20697;-63
2022/03/02 13:52:29;;;;;;;3.90;3.47;;;;;;;;;;5019924;28;20214;-62
2022/03/02 13:55:18;;;;;;;3.43;3.00;;;;;;;;;;5024068;28;20589;-62
2022/03/02 13:58:27;;;;;;;3.30;3.00;;;;;;;;;;5023791;28;20219;-61
2022/03/02 14:01:17;;;;;;;4.30;3.10;;;;;;;;;;5021512;28;20238;-64
2022/03/02 14:04:12;;;;;;;3.77;3.37;;;;;;;;;;5023811;28;20218;-63
2022/03/02 14:06:44;;;;;;;3.97;3.57;;;;;;;;;;5015479;28;20195;-63
2022/03/02 14:09:14;;;;;;;3.87;3.23;;;;;;;;;;5027313;28;20533;-63
2022/03/02 14:11:59;;;;;;;4.80;3.50;;;;;;;;;;5013710;28;20192;-63
2022/03/02 14:14:34;;;;;;;3.70;3.40;;;;;;;;;;5013399;28;20226;-63
2022/03/02 14:17:09;;;;;;;3.00;2.70;;;;;;;;;;5025228;28;20223;-63
2022/03/02 14:19:43;;;;;;;3.47;3.17;;;;;;;;;;5026869;28;20225;-63
2022/03/02 14:22:21;;;;;;;3.63;2.93;;;;;;;;;;5022523;28;20199;-64
2022/03/02 14:24:50;;;;;;;3.80;3.40;;;;;;;;;;5025023;28;20294;-64
2022/03/02 14:27:29;;;;;;;4.63;2.90;;;;;;;;;;5020770;28;20638;-62
2022/03/02 14:30:11;;;;;;;3.73;3.37;;;;;;;;;;5022724;28;20383;-61
2022/03/02 14:32:48;;;;;;;2.93;2.50;;;;;;;;;;5023600;28;20215;-65
2022/03/02 14:35:22;;;;;;;4.17;3.40;;;;;;;;;;5010359;28;20224;-62
2022/03/02 14:37:55;;;;;;;3.33;3.00;;;;;;;;;;5001717;28;20323;-62
2022/03/02 14:40:31;;;;;;;3.67;2.97;;;;;;;;;;5025942;28;20207;-63
2022/03/02 14:43:05;;;;;;;3.13;2.83;;;;;;;;;;5029800;28;20358;-62
2022/03/02 14:45:46;;;;;;;4.17;3.23;;;;;;;;;;5024578;28;20264;-63
2022/03/02 14:48:16;;;;;;;3.70;3.40;;;;;;;;;;5022481;28;20219;-63
2022/03/02 14:51:01;;;;;;;3.53;2.47;;;;;;;;;;5016039;28;20286;-63
2022/03/02 14:53:33;;;;;;;3.63;3.20;;;;;;;;;;5024630;28;20206;-62
2022/03/02 14:56:06;;;;;;;4.40;3.50;;;;;;;;;;5020939;28;20211;-62
2022/03/02 14:58:41;;;;;;;3.50;2.70;;;;;;;;;;5012019;28;20222;-62
2022/03/02 15:01:22;;;;;;;3.47;3.13;;;;;;;;;;5027045;28;20214;-64
2022/03/02 15:03:56;;;;;;;3.87;2.97;;;;;;;;;;5015249;28;20256;-63
2022/03/02 15:06:29;;;;;;;3.07;2.77;;;;;;;;;;4996851;28;20264;-62
2022/03/02 15:09:04;;;;;;;3.90;2.97;;;;;;;;;;5026535;28;20330;-63
2022/03/02 15:11:50;;;;;;;3.37;3.07;;;;;;;;;;5016013;28;20210;-62
2022/03/02 15:17:12;;;;;;;3.70;2.77;;;;;;;;;;5026338;28;20208;-63
2022/03/02 15:19:51;;;;;;;3.47;3.17;;;;;;;;;;4999304;28;20271;-63
2022/03/02 15:22:27;;;;;;;2.93;2.63;;;;;;;;;;5027641;28;20248;-67
2022/03/02 15:25:01;;;;;;;3.40;3.07;;;;;;;;;;5012761;28;20209;-63